createdAt,value
2023-03-06T00:00:17.740Z,4.75
2023-03-06T00:02:44.690Z,4.74
2023-03-06T00:05:12.515Z,4.74
2023-03-06T00:07:38.990Z,4.73
2023-03-06T00:10:06.048Z,4.72
2023-03-06T00:12:32.475Z,4.69
2023-03-06T00:14:58.888Z,4.68
2023-03-06T00:17:27.192Z,4.66
2023-03-06T00:19:53.703Z,4.67
2023-03-06T00:22:20.152Z,4.64
2023-03-06T00:24:46.563Z,4.64
2023-03-06T00:27:13.098Z,4.63
2023-03-06T00:29:39.536Z,4.63
2023-03-06T00:32:06.520Z,4.63
2023-03-06T00:34:32.933Z,4.61
2023-03-06T00:36:59.460Z,4.60
2023-03-06T00:39:25.903Z,4.59
2023-03-06T00:41:52.625Z,4.58
2023-03-06T00:44:18.998Z,4.57
2023-03-06T00:46:45.427Z,4.59
2023-03-06T00:49:11.824Z,4.58
2023-03-06T00:51:38.259Z,4.57
2023-03-06T00:54:04.695Z,4.58
2023-03-06T00:56:31.165Z,4.59
2023-03-06T00:58:57.581Z,4.58
2023-03-06T01:01:24.008Z,4.58
2023-03-06T01:03:50.402Z,4.58
2023-03-06T01:06:17.495Z,4.58
2023-03-06T01:08:43.904Z,4.59
2023-03-06T01:11:10.371Z,4.60
2023-03-06T01:13:36.773Z,4.60
2023-03-06T01:16:11.834Z,4.61
2023-03-06T01:18:38.281Z,4.61
2023-03-06T01:21:05.882Z,4.62
2023-03-06T01:23:32.940Z,4.64
2023-03-06T01:25:59.880Z,4.63
2023-03-06T01:28:27.538Z,4.65
2023-03-06T01:30:54.455Z,4.64
2023-03-06T01:33:21.354Z,4.62
2023-03-06T01:35:48.209Z,4.62
2023-03-06T01:38:15.659Z,4.62
2023-03-06T01:40:42.190Z,4.60
2023-03-06T01:43:25.822Z,4.60
2023-03-06T01:45:52.783Z,4.60
2023-03-06T01:48:22.981Z,4.61
2023-03-06T01:50:52.627Z,4.61
2023-03-06T01:53:20.432Z,4.60
2023-03-06T01:55:47.036Z,4.57
2023-03-06T01:58:17.504Z,4.56
2023-03-06T02:00:44.156Z,4.56
2023-03-06T02:03:14.392Z,4.56
2023-03-06T02:05:41.825Z,4.55
2023-03-06T02:08:10.575Z,4.56
2023-03-06T02:10:37.174Z,4.56
2023-03-06T02:13:04.354Z,4.57
2023-03-06T02:15:30.996Z,4.57
2023-03-06T02:17:57.574Z,4.56
2023-03-06T02:20:34.364Z,4.55
2023-03-06T02:23:32.948Z,4.54
2023-03-06T02:26:01.759Z,4.54
2023-03-06T02:28:28.322Z,4.55
2023-03-06T02:30:55.745Z,4.54
2023-03-06T02:33:25.845Z,4.49
2023-03-06T02:35:58.930Z,4.48
2023-03-06T02:38:29.726Z,4.47
2023-03-06T02:40:58.051Z,4.47
2023-03-06T02:43:28.767Z,4.47
2023-03-06T02:45:55.373Z,4.45
2023-03-06T02:48:22.015Z,4.45
2023-03-06T02:50:49.106Z,4.46
2023-03-06T02:53:17.809Z,4.46
2023-03-06T02:55:44.562Z,4.47
2023-03-06T02:58:10.978Z,4.47
2023-03-06T03:00:37.431Z,4.47
2023-03-06T03:03:04.797Z,4.46
2023-03-06T03:05:31.943Z,4.46
2023-03-06T03:07:58.578Z,4.43
2023-03-06T03:10:25.154Z,4.41
2023-03-06T03:12:51.796Z,4.41
2023-03-06T03:15:18.541Z,4.40
2023-03-06T03:17:45.009Z,4.37
2023-03-06T03:20:15.102Z,4.37
2023-03-06T03:22:41.560Z,4.33
2023-03-06T03:25:08.599Z,4.33
2023-03-06T03:27:35.042Z,4.30
2023-03-06T03:30:01.585Z,4.27
2023-03-06T03:32:28.050Z,4.27
2023-03-06T03:34:57.278Z,4.24
2023-03-06T03:37:23.844Z,4.21
2023-03-06T03:39:50.222Z,4.21
2023-03-06T03:42:16.716Z,4.20
2023-03-06T03:44:43.155Z,4.20
2023-03-06T03:47:09.619Z,4.17
2023-03-06T03:49:36.065Z,4.15
2023-03-06T03:52:02.528Z,4.12
2023-03-06T03:54:28.936Z,4.10
2023-03-06T03:56:55.577Z,4.09
2023-03-06T03:59:22.540Z,4.10
2023-03-06T04:01:49.567Z,4.09
2023-03-06T04:04:16.354Z,4.08
2023-03-06T04:06:42.746Z,4.06
2023-03-06T04:09:09.230Z,4.06
2023-03-06T04:11:35.669Z,4.05
2023-03-06T04:14:03.242Z,4.03
2023-03-06T04:16:29.698Z,4.02
2023-03-06T04:18:56.155Z,4.00
2023-03-06T04:21:22.532Z,3.98
2023-03-06T04:23:48.931Z,3.99
2023-03-06T04:26:15.417Z,3.97
2023-03-06T04:28:41.905Z,3.96
2023-03-06T04:31:08.452Z,3.96
2023-03-06T04:33:35.003Z,3.95
2023-03-06T04:36:01.452Z,3.93
2023-03-06T04:38:27.862Z,3.91
2023-03-06T04:40:54.305Z,3.90
2023-03-06T04:43:20.880Z,3.90
2023-03-06T04:45:47.364Z,3.91
2023-03-06T04:48:18.522Z,3.90
2023-03-06T04:50:45.278Z,3.90
2023-03-06T04:53:11.707Z,3.90
2023-03-06T04:55:38.509Z,3.92
2023-03-06T04:58:04.887Z,3.92
2023-03-06T05:00:31.759Z,3.90
2023-03-06T05:03:00.288Z,3.91
2023-03-06T05:05:26.838Z,3.91
2023-03-06T05:07:53.780Z,3.91
2023-03-06T05:10:20.726Z,3.88
2023-03-06T05:12:47.186Z,3.88
2023-03-06T05:15:14.418Z,3.88
2023-03-06T05:17:40.954Z,3.88
2023-03-06T05:20:09.727Z,3.87
2023-03-06T05:22:36.396Z,3.88
2023-03-06T05:25:03.217Z,3.89
2023-03-06T05:27:29.651Z,3.88
2023-03-06T05:29:56.124Z,3.88
2023-03-06T05:32:22.937Z,3.89
2023-03-06T05:34:49.716Z,3.86
2023-03-06T05:37:16.324Z,3.87
2023-03-06T05:39:43.044Z,3.88
2023-03-06T05:42:10.009Z,3.91
2023-03-06T05:44:36.477Z,3.95
2023-03-06T05:47:02.901Z,3.96
2023-03-06T05:49:34.344Z,3.98
2023-03-06T05:52:03.933Z,4.00
2023-03-06T05:54:31.701Z,4.01
2023-03-06T05:56:58.129Z,4.03
2023-03-06T05:59:28.155Z,4.05
2023-03-06T06:01:55.581Z,4.06
2023-03-06T06:04:23.387Z,4.08
2023-03-06T06:06:58.522Z,4.09
2023-03-06T06:09:26.163Z,4.10
2023-03-06T06:11:54.271Z,4.09
2023-03-06T06:14:20.695Z,4.09
2023-03-06T06:16:47.230Z,4.09
2023-03-06T06:19:18.632Z,4.08
2023-03-06T06:21:50.440Z,4.08
2023-03-06T06:24:18.849Z,4.04
2023-03-06T06:26:45.369Z,4.05
2023-03-06T06:29:13.431Z,4.04
2023-03-06T06:31:40.439Z,4.02
2023-03-06T06:34:07.660Z,4.02
2023-03-06T06:36:34.474Z,4.01
2023-03-06T06:39:01.133Z,3.99
2023-03-06T06:41:46.551Z,3.99
2023-03-06T06:44:16.169Z,3.98
2023-03-06T06:49:32.544Z,4.00
2023-03-06T06:51:59.361Z,4.01
2023-03-06T06:54:25.916Z,4.01
2023-03-06T06:56:52.353Z,4.05
2023-03-06T06:59:19.055Z,4.08
2023-03-06T07:01:45.482Z,4.09
2023-03-06T07:04:13.346Z,4.12
2023-03-06T07:06:39.826Z,4.16
2023-03-06T07:09:06.208Z,4.17
2023-03-06T07:11:32.624Z,4.19
2023-03-06T07:13:59.282Z,4.20
2023-03-06T07:16:25.681Z,4.20
2023-03-06T07:18:52.092Z,4.23
2023-03-06T07:21:18.537Z,4.24
2023-03-06T07:23:44.952Z,4.27
2023-03-06T07:26:11.434Z,4.30
2023-03-06T07:28:51.637Z,4.31
2023-03-06T07:31:22.066Z,4.32
2023-03-06T07:33:52.912Z,4.35
2023-03-06T07:36:20.140Z,4.37
2023-03-06T07:38:46.700Z,4.40
2023-03-06T07:41:15.262Z,4.43
2023-03-06T07:43:43.405Z,4.47
2023-03-06T07:46:10.658Z,4.49
2023-03-06T07:48:37.707Z,4.50
2023-03-06T07:51:12.471Z,4.55
2023-03-06T07:53:39.577Z,4.58
2023-03-06T07:56:08.898Z,4.63
2023-03-06T07:58:36.636Z,4.65
2023-03-06T08:01:05.404Z,4.68
2023-03-06T08:03:32.447Z,4.70
2023-03-06T08:06:10.744Z,4.73
2023-03-06T08:08:39.395Z,4.79
2023-03-06T08:11:07.271Z,4.79
2023-03-06T08:13:34.576Z,4.86
2023-03-06T08:16:01.437Z,4.91
2023-03-06T08:18:28.489Z,4.91
2023-03-06T08:21:09.237Z,4.94
2023-03-06T08:23:36.207Z,4.98
2023-03-06T08:26:05.820Z,5.01
2023-03-06T08:28:32.863Z,5.08
2023-03-06T08:31:07.199Z,5.14
2023-03-06T08:33:33.633Z,5.19
2023-03-06T08:36:01.406Z,5.24
2023-03-06T08:38:28.734Z,5.36
2023-03-06T08:40:55.134Z,5.48
2023-03-06T08:43:21.545Z,5.59
2023-03-06T08:45:55.887Z,5.69
2023-03-06T08:48:22.370Z,5.76
2023-03-06T08:50:48.813Z,5.83
2023-03-06T08:53:15.390Z,5.92
2023-03-06T08:55:41.948Z,6.01
2023-03-06T08:58:08.650Z,6.03
2023-03-06T09:00:35.827Z,6.03
2023-03-06T09:03:02.310Z,6.01
2023-03-06T09:05:28.727Z,5.99
2023-03-06T09:07:55.218Z,6.00
2023-03-06T09:10:23.643Z,5.98
2023-03-06T09:12:53.221Z,5.97
2023-03-06T09:15:22.665Z,5.98
2023-03-06T09:17:49.216Z,6.03
2023-03-06T09:20:16.525Z,6.10
2023-03-06T09:22:43.622Z,6.15
2023-03-06T09:25:13.129Z,6.19
2023-03-06T09:27:40.131Z,6.21
2023-03-06T09:30:07.631Z,6.29
2023-03-06T09:32:34.083Z,6.35
2023-03-06T09:35:00.918Z,6.43
2023-03-06T09:37:27.413Z,6.43
2023-03-06T09:39:53.793Z,6.43
2023-03-06T09:42:23.426Z,6.46
2023-03-06T09:44:54.594Z,6.49
2023-03-06T09:47:38.782Z,6.54
2023-03-06T09:50:29.518Z,6.48
2023-03-06T09:53:16.773Z,6.51
2023-03-06T09:55:50.115Z,6.56
2023-03-06T09:58:21.942Z,6.66
2023-03-06T10:01:12.193Z,6.70
2023-03-06T10:03:56.831Z,6.78
2023-03-06T10:06:33.064Z,6.86
2023-03-06T10:09:23.265Z,6.97
2023-03-06T10:12:00.606Z,7.09
2023-03-06T10:14:31.878Z,7.20
2023-03-06T10:16:58.578Z,7.29
2023-03-06T10:19:33.594Z,7.42
2023-03-06T10:22:36.888Z,7.48
2023-03-06T10:25:17.600Z,7.53
2023-03-06T10:28:01.391Z,7.53
2023-03-06T10:30:57.125Z,7.54
2023-03-06T10:33:52.638Z,7.50
2023-03-06T10:36:21.122Z,7.46
2023-03-06T10:38:48.771Z,7.49
2023-03-06T10:41:25.140Z,7.41
2023-03-06T10:44:00.634Z,7.31
2023-03-06T10:46:29.839Z,7.32
2023-03-06T10:49:04.962Z,7.42
2023-03-06T10:51:33.109Z,7.56
2023-03-06T10:54:18.064Z,7.64
2023-03-06T10:56:46.992Z,7.61
2023-03-06T10:59:15.150Z,7.58
2023-03-06T11:01:46.798Z,7.58
2023-03-06T11:04:32.268Z,7.44
2023-03-06T11:07:18.481Z,7.46
2023-03-06T11:09:58.312Z,7.49
2023-03-06T11:12:34.545Z,7.55
2023-03-06T11:15:07.286Z,7.65
2023-03-06T11:17:55.712Z,7.73
2023-03-06T11:20:52.150Z,7.84
2023-03-06T11:23:29.127Z,8.04
2023-03-06T11:26:02.328Z,8.20
2023-03-06T11:28:32.103Z,8.37
2023-03-06T11:31:13.713Z,8.56
2023-03-06T11:33:49.762Z,8.71
2023-03-06T11:36:38.600Z,8.88
2023-03-06T11:39:15.619Z,9.25
2023-03-06T11:42:06.701Z,9.39
2023-03-06T11:44:47.724Z,9.43
2023-03-06T11:47:28.492Z,9.28
2023-03-06T11:50:19.001Z,9.27
2023-03-06T11:52:51.367Z,9.14
2023-03-06T11:55:48.795Z,9.07
2023-03-06T11:58:40.343Z,9.16
2023-03-06T12:01:26.959Z,9.29
2023-03-06T12:04:03.760Z,9.35
2023-03-06T12:06:30.159Z,9.39
2023-03-06T12:09:11.915Z,9.42
2023-03-06T12:11:48.418Z,9.46
2023-03-06T12:14:30.712Z,9.29
2023-03-06T12:17:24.300Z,9.18
2023-03-06T12:20:16.208Z,9.09
2023-03-06T12:22:58.230Z,9.04
2023-03-06T12:25:42.294Z,8.99
2023-03-06T12:28:08.707Z,8.97
2023-03-06T12:30:56.071Z,8.99
2023-03-06T12:33:34.965Z,9.00
2023-03-06T12:36:22.818Z,9.07
2023-03-06T12:39:10.341Z,9.08
2023-03-06T12:41:43.154Z,9.11
2023-03-06T12:44:51.362Z,9.11
2023-03-06T12:47:21.303Z,9.07
2023-03-06T12:49:53.230Z,9.03
2023-03-06T12:52:30.189Z,8.97
2023-03-06T12:54:59.987Z,8.94
2023-03-06T12:57:26.677Z,8.91
2023-03-06T12:59:53.690Z,8.92
2023-03-06T13:03:15.663Z,8.81
2023-03-06T13:06:05.205Z,8.74
2023-03-06T13:08:52.671Z,8.63
2023-03-06T13:11:35.464Z,8.63
2023-03-06T13:14:21.892Z,8.56
2023-03-06T13:16:48.428Z,8.62
2023-03-06T13:19:24.255Z,8.56
2023-03-06T13:21:56.719Z,8.52
2023-03-06T13:24:23.927Z,8.47
2023-03-06T13:27:02.727Z,8.44
2023-03-06T13:29:38.373Z,8.47
2023-03-06T13:32:15.813Z,8.47
2023-03-06T13:34:48.448Z,8.47
2023-03-06T13:37:18.506Z,8.49
2023-03-06T13:39:53.958Z,8.48
2023-03-06T13:42:42.228Z,8.42
2023-03-06T13:45:19.257Z,8.44
2023-03-06T13:50:43.764Z,8.34
2023-03-06T13:53:22.347Z,8.34
2023-03-06T13:55:58.765Z,8.35
2023-03-06T13:58:44.806Z,8.34
2023-03-06T14:01:20.647Z,8.37
2023-03-06T14:04:08.607Z,8.35
2023-03-06T14:06:34.941Z,8.35
2023-03-06T14:09:05.408Z,8.28
2023-03-06T14:11:33.030Z,8.23
2023-03-06T14:13:59.864Z,8.20
2023-03-06T14:16:40.511Z,8.18
2023-03-06T14:19:16.480Z,8.13
2023-03-06T14:21:49.685Z,8.05
2023-03-06T14:24:18.257Z,8.00
2023-03-06T14:26:50.580Z,7.97
2023-03-06T14:29:23.530Z,7.94
2023-03-06T14:31:52.726Z,7.86
2023-03-06T14:34:32.394Z,7.87
2023-03-06T14:37:05.593Z,7.85
2023-03-06T14:39:39.089Z,7.82
2023-03-06T14:42:25.075Z,7.80
2023-03-06T14:45:15.884Z,7.80
2023-03-06T14:47:43.232Z,7.78
2023-03-06T14:50:35.209Z,7.80
2023-03-06T14:53:17.447Z,7.77
2023-03-06T14:55:57.768Z,7.73
2023-03-06T14:58:30.440Z,7.75
2023-03-06T15:01:02.532Z,7.69
2023-03-06T15:03:49.114Z,7.71
2023-03-06T15:06:20.932Z,7.68
2023-03-06T15:08:52.376Z,7.71
2023-03-06T15:11:18.788Z,7.71
2023-03-06T15:14:00.650Z,7.72
2023-03-06T15:16:30.109Z,7.74
2023-03-06T15:19:04.671Z,7.74
2023-03-06T15:21:38.607Z,7.76
2023-03-06T15:24:35.824Z,7.77
2023-03-06T15:27:15.135Z,7.77
2023-03-06T15:29:41.747Z,7.75
2023-03-06T15:32:34.375Z,7.73
2023-03-06T15:35:27.783Z,7.65
2023-03-06T15:37:54.908Z,7.58
2023-03-06T15:40:23.908Z,7.50
2023-03-06T15:42:50.494Z,7.41
2023-03-06T15:45:22.814Z,7.43
2023-03-06T15:47:51.835Z,7.42
2023-03-06T15:50:20.190Z,7.40
2023-03-06T15:52:47.769Z,7.41
2023-03-06T15:55:16.125Z,7.43
2023-03-06T15:57:56.575Z,7.41
2023-03-06T16:00:28.265Z,7.39
2023-03-06T16:02:56.330Z,7.38
2023-03-06T16:05:23.379Z,7.34
2023-03-06T16:07:49.893Z,7.34
2023-03-06T16:10:19.174Z,7.35
2023-03-06T16:12:49.847Z,7.32
2023-03-06T16:15:22.236Z,7.31
2023-03-06T16:17:49.474Z,7.29
2023-03-06T16:20:18.218Z,7.28
2023-03-06T16:22:47.141Z,7.24
2023-03-06T16:25:14.531Z,7.22
2023-03-06T16:27:49.636Z,7.21
2023-03-06T16:30:20.450Z,7.17
2023-03-06T16:32:46.993Z,7.18
2023-03-06T16:35:14.598Z,7.14
2023-03-06T16:37:41.873Z,7.12
2023-03-06T16:40:29.405Z,7.09
2023-03-06T16:42:56.141Z,7.06
2023-03-06T16:45:24.465Z,7.05
2023-03-06T16:47:51.454Z,7.02
2023-03-06T16:50:32.393Z,6.99
2023-03-06T16:52:59.230Z,6.99
2023-03-06T16:55:27.074Z,6.98
2023-03-06T16:57:53.735Z,6.94
2023-03-06T17:00:21.512Z,6.94
2023-03-06T17:02:48.911Z,6.93
2023-03-06T17:05:15.361Z,6.92
2023-03-06T17:07:41.762Z,6.91
2023-03-06T17:10:11.213Z,6.90
2023-03-06T17:12:38.208Z,6.88
2023-03-06T17:15:06.178Z,6.86
2023-03-06T17:17:32.902Z,6.84
2023-03-06T17:19:59.422Z,6.83
2023-03-06T17:22:27.317Z,6.80
2023-03-06T17:24:54.231Z,6.80
2023-03-06T17:27:22.682Z,6.77
2023-03-06T17:29:49.110Z,6.78
2023-03-06T17:32:15.554Z,6.76
2023-03-06T17:34:42.244Z,6.73
2023-03-06T17:37:08.616Z,6.72
2023-03-06T17:39:37.364Z,6.70
2023-03-06T17:42:04.936Z,6.69
2023-03-06T17:44:33.008Z,6.67
2023-03-06T17:46:59.518Z,6.65
2023-03-06T17:49:25.962Z,6.62
2023-03-06T17:51:53.038Z,6.60
2023-03-06T17:54:19.869Z,6.57
2023-03-06T17:56:46.328Z,6.54
2023-03-06T17:59:13.017Z,6.50
2023-03-06T18:01:39.682Z,6.47
2023-03-06T18:04:06.452Z,6.44
2023-03-06T18:06:33.833Z,6.42
2023-03-06T18:09:01.230Z,6.36
2023-03-06T18:11:28.058Z,6.32
2023-03-06T18:13:54.519Z,6.28
2023-03-06T18:16:23.341Z,6.25
2023-03-06T18:18:54.960Z,6.23
2023-03-06T18:21:22.811Z,6.19
2023-03-06T18:23:49.720Z,6.19
2023-03-06T18:26:23.093Z,6.19
2023-03-06T18:28:53.998Z,6.17
2023-03-06T18:31:31.738Z,6.13
2023-03-06T18:34:02.142Z,6.09
2023-03-06T18:36:31.691Z,6.02
2023-03-06T18:38:59.215Z,5.94
2023-03-06T18:41:25.663Z,5.87
2023-03-06T18:43:56.349Z,5.80
2023-03-06T18:46:23.928Z,5.75
2023-03-06T18:48:50.365Z,5.69
2023-03-06T18:51:17.806Z,5.64
2023-03-06T18:53:44.258Z,5.53
2023-03-06T18:56:17.018Z,5.47
2023-03-06T18:58:44.169Z,5.40
2023-03-06T19:01:11.401Z,5.34
2023-03-06T19:03:37.884Z,5.30
2023-03-06T19:06:09.682Z,5.32
2023-03-06T19:08:37.274Z,5.36
2023-03-06T19:11:09.228Z,5.38
2023-03-06T19:13:35.792Z,5.39
2023-03-06T19:16:02.333Z,5.43
2023-03-06T19:18:29.697Z,5.45
2023-03-06T19:21:06.995Z,5.45
2023-03-06T19:23:33.401Z,5.48
2023-03-06T19:26:00.270Z,5.47
2023-03-06T19:28:27.094Z,5.46
2023-03-06T19:30:53.620Z,5.40
2023-03-06T19:33:20.266Z,5.34
2023-03-06T19:35:46.764Z,5.30
2023-03-06T19:38:13.937Z,5.26
2023-03-06T19:40:40.399Z,5.21
2023-03-06T19:43:06.797Z,5.16
2023-03-06T19:45:33.216Z,5.13
2023-03-06T19:48:05.386Z,5.11
2023-03-06T19:50:31.783Z,5.06
2023-03-06T19:52:58.299Z,5.03
2023-03-06T19:55:26.300Z,4.98
2023-03-06T19:57:53.268Z,4.97
2023-03-06T20:00:20.205Z,4.95
2023-03-06T20:02:46.668Z,4.93
2023-03-06T20:05:13.193Z,4.94
2023-03-06T20:07:39.572Z,5.00
2023-03-06T20:10:06.412Z,5.05
2023-03-06T20:12:33.414Z,5.05
2023-03-06T20:15:00.076Z,5.11
2023-03-06T20:17:26.616Z,5.16
2023-03-06T20:19:53.519Z,5.22
2023-03-06T20:22:20.064Z,5.26
2023-03-06T20:24:46.854Z,5.29
2023-03-06T20:27:13.673Z,5.28
2023-03-06T20:29:44.557Z,5.32
2023-03-06T20:32:12.988Z,5.33
2023-03-06T20:34:40.067Z,5.37
2023-03-06T20:37:07.892Z,5.37
2023-03-06T20:39:34.909Z,5.37
2023-03-06T20:42:01.962Z,5.35
2023-03-06T20:44:28.848Z,5.38
2023-03-06T20:46:55.279Z,5.39
2023-03-06T20:49:22.367Z,5.37
2023-03-06T20:51:49.953Z,5.38
2023-03-06T20:54:17.173Z,5.39
2023-03-06T20:56:47.810Z,5.39
2023-03-06T20:59:14.728Z,5.34
2023-03-06T21:01:43.650Z,5.39
2023-03-06T21:04:13.551Z,5.43
2023-03-06T21:06:42.428Z,5.45
2023-03-06T21:09:08.929Z,5.45
2023-03-06T21:11:35.632Z,5.47
2023-03-06T21:14:02.333Z,5.45
2023-03-06T21:16:30.388Z,5.46
2023-03-06T21:18:58.764Z,5.46
2023-03-06T21:21:28.925Z,5.48
2023-03-06T21:23:55.806Z,5.48
2023-03-06T21:26:24.536Z,5.46
2023-03-06T21:28:51.030Z,5.46
2023-03-06T21:31:19.835Z,5.46
2023-03-06T21:33:47.968Z,5.46
2023-03-06T21:36:15.709Z,5.45
2023-03-06T21:38:42.111Z,5.44
2023-03-06T21:41:12.615Z,5.40
2023-03-06T21:43:39.436Z,5.39
2023-03-06T21:46:05.998Z,5.39
2023-03-06T21:48:32.945Z,5.38
2023-03-06T21:51:15.731Z,5.38
2023-03-06T21:53:43.296Z,5.38
2023-03-06T21:56:10.247Z,5.37
2023-03-06T21:58:37.056Z,5.35
2023-03-06T22:01:09.556Z,5.35
2023-03-06T22:03:36.065Z,5.31
2023-03-06T22:06:13.670Z,5.27
2023-03-06T22:08:41.073Z,5.24
2023-03-06T22:11:13.668Z,5.24
2023-03-06T22:13:41.119Z,5.23
2023-03-06T22:16:08.665Z,5.24
2023-03-06T22:18:35.914Z,5.21
2023-03-06T22:21:13.854Z,5.19
2023-03-06T22:23:40.613Z,5.19
2023-03-06T22:26:12.729Z,5.20
2023-03-06T22:28:40.805Z,5.19
2023-03-06T22:31:13.231Z,5.21
2023-03-06T22:33:40.275Z,5.20
2023-03-06T22:36:10.011Z,5.22
2023-03-06T22:38:39.020Z,5.22
2023-03-06T22:41:06.965Z,5.22
2023-03-06T22:43:34.094Z,5.21
2023-03-06T22:46:02.642Z,5.23
2023-03-06T22:48:29.230Z,5.22
2023-03-06T22:50:55.690Z,5.24
2023-03-06T22:53:22.102Z,5.24
2023-03-06T22:55:48.491Z,5.23
2023-03-06T22:58:14.923Z,5.26
2023-03-06T23:00:41.309Z,5.26
2023-03-06T23:03:07.713Z,5.25
2023-03-06T23:05:34.107Z,5.29
2023-03-06T23:08:00.559Z,5.29
2023-03-06T23:10:26.990Z,5.30
2023-03-06T23:12:53.431Z,5.28
2023-03-06T23:15:20.250Z,5.32
2023-03-06T23:17:46.746Z,5.33
2023-03-06T23:20:13.677Z,5.37
2023-03-06T23:22:40.106Z,5.39
2023-03-06T23:25:06.829Z,5.40
2023-03-06T23:27:35.427Z,5.44
2023-03-06T23:30:02.494Z,5.42
2023-03-06T23:32:30.802Z,5.43
2023-03-06T23:34:57.206Z,5.44
2023-03-06T23:37:23.660Z,5.46
2023-03-06T23:39:50.065Z,5.47
2023-03-06T23:42:16.509Z,5.49
2023-03-06T23:44:42.969Z,5.50
2023-03-06T23:47:09.380Z,5.51
2023-03-06T23:49:36.017Z,5.47
2023-03-06T23:52:02.409Z,5.50
2023-03-06T23:54:28.793Z,5.49
2023-03-06T23:56:55.245Z,5.50
2023-03-06T23:59:21.703Z,5.50
